sensor_id;sensor_type;location;lat;lon;timestamp;P1;durP1;ratioP1;P2;durP2;ratioP2
3278;SDS011;1651;50.940;6.888;2023-07-29T00:02:11;2.50;;;1.60;;
3278;SDS011;1651;50.940;6.888;2023-07-29T00:04:37;2.03;;;1.80;;
3278;SDS011;1651;50.940;6.888;2023-07-29T00:07:03;2.67;;;1.70;;
3278;SDS011;1651;50.940;6.888;2023-07-29T00:09:29;2.43;;;2.00;;
3278;SDS011;1651;50.940;6.888;2023-07-29T00:11:55;2.10;;;1.83;;
3278;SDS011;1651;50.940;6.888;2023-07-29T00:14:21;2.07;;;1.87;;
3278;SDS011;1651;50.940;6.888;2023-07-29T00:16:47;3.23;;;1.80;;
3278;SDS011;1651;50.940;6.888;2023-07-29T00:19:13;5.40;;;2.50;;
3278;SDS011;1651;50.940;6.888;2023-07-29T00:21:39;3.97;;;2.13;;
3278;SDS011;1651;50.940;6.888;2023-07-29T00:24:06;4.40;;;2.40;;
3278;SDS011;1651;50.940;6.888;2023-07-29T00:26:32;4.30;;;2.40;;
3278;SDS011;1651;50.940;6.888;2023-07-29T00:28:59;2.70;;;2.17;;
3278;SDS011;1651;50.940;6.888;2023-07-29T00:31:25;2.30;;;2.10;;
3278;SDS011;1651;50.940;6.888;2023-07-29T00:33:51;2.07;;;1.87;;
3278;SDS011;1651;50.940;6.888;2023-07-29T00:36:17;3.33;;;2.27;;
3278;SDS011;1651;50.940;6.888;2023-07-29T00:38:44;2.30;;;2.10;;
3278;SDS011;1651;50.940;6.888;2023-07-29T00:41:10;2.20;;;2.00;;
3278;SDS011;1651;50.940;6.888;2023-07-29T00:43:38;2.70;;;2.43;;
3278;SDS011;1651;50.940;6.888;2023-07-29T00:46:04;2.70;;;2.50;;
3278;SDS011;1651;50.940;6.888;2023-07-29T00:48:30;3.43;;;2.10;;
3278;SDS011;1651;50.940;6.888;2023-07-29T00:50:56;4.13;;;2.23;;
3278;SDS011;1651;50.940;6.888;2023-07-29T00:53:22;2.57;;;1.90;;
3278;SDS011;1651;50.940;6.888;2023-07-29T00:55:48;2.77;;;2.07;;
3278;SDS011;1651;50.940;6.888;2023-07-29T00:58:14;3.40;;;2.50;;
3278;SDS011;1651;50.940;6.888;2023-07-29T01:00:40;2.30;;;2.10;;
3278;SDS011;1651;50.940;6.888;2023-07-29T01:03:07;2.20;;;2.00;;
3278;SDS011;1651;50.940;6.888;2023-07-29T01:05:36;3.50;;;2.30;;
3278;SDS011;1651;50.940;6.888;2023-07-29T01:08:12;2.70;;;2.40;;
3278;SDS011;1651;50.940;6.888;2023-07-29T01:10:46;2.00;;;1.90;;
3278;SDS011;1651;50.940;6.888;2023-07-29T01:13:23;3.00;;;2.70;;
3278;SDS011;1651;50.940;6.888;2023-07-29T01:15:53;2.77;;;2.43;;
3278;SDS011;1651;50.940;6.888;2023-07-29T01:18:24;2.80;;;2.60;;
3278;SDS011;1651;50.940;6.888;2023-07-29T01:20:53;3.70;;;2.37;;
3278;SDS011;1651;50.940;6.888;2023-07-29T01:23:23;3.50;;;2.47;;
3278;SDS011;1651;50.940;6.888;2023-07-29T01:25:49;5.70;;;2.67;;
3278;SDS011;1651;50.940;6.888;2023-07-29T01:28:15;2.53;;;2.33;;
3278;SDS011;1651;50.940;6.888;2023-07-29T01:30:41;2.70;;;2.10;;
3278;SDS011;1651;50.940;6.888;2023-07-29T01:33:16;6.10;;;2.40;;
3278;SDS011;1651;50.940;6.888;2023-07-29T01:35:48;2.40;;;2.20;;
3278;SDS011;1651;50.940;6.888;2023-07-29T01:40:46;4.87;;;2.37;;
3278;SDS011;1651;50.940;6.888;2023-07-29T01:43:14;3.20;;;2.60;;
3278;SDS011;1651;50.940;6.888;2023-07-29T01:45:40;2.73;;;2.53;;
3278;SDS011;1651;50.940;6.888;2023-07-29T01:48:06;3.93;;;2.70;;
3278;SDS011;1651;50.940;6.888;2023-07-29T01:50:33;5.00;;;2.97;;
3278;SDS011;1651;50.940;6.888;2023-07-29T01:52:59;2.70;;;2.50;;
3278;SDS011;1651;50.940;6.888;2023-07-29T01:55:25;2.00;;;1.80;;
3278;SDS011;1651;50.940;6.888;2023-07-29T01:57:51;2.17;;;2.00;;
3278;SDS011;1651;50.940;6.888;2023-07-29T02:00:18;4.43;;;2.93;;
3278;SDS011;1651;50.940;6.888;2023-07-29T02:02:44;3.20;;;2.33;;
3278;SDS011;1651;50.940;6.888;2023-07-29T02:05:10;5.10;;;2.50;;
3278;SDS011;1651;50.940;6.888;2023-07-29T02:07:36;2.83;;;2.60;;
3278;SDS011;1651;50.940;6.888;2023-07-29T02:10:02;2.17;;;1.97;;
3278;SDS011;1651;50.940;6.888;2023-07-29T02:12:28;2.37;;;2.17;;
3278;SDS011;1651;50.940;6.888;2023-07-29T02:14:54;2.90;;;2.37;;
3278;SDS011;1651;50.940;6.888;2023-07-29T02:17:20;2.23;;;2.03;;
3278;SDS011;1651;50.940;6.888;2023-07-29T02:19:46;2.50;;;2.23;;
3278;SDS011;1651;50.940;6.888;2023-07-29T02:22:16;3.10;;;2.50;;
3278;SDS011;1651;50.940;6.888;2023-07-29T02:24:42;3.97;;;2.43;;
3278;SDS011;1651;50.940;6.888;2023-07-29T02:27:08;3.87;;;2.13;;
3278;SDS011;1651;50.940;6.888;2023-07-29T02:29:34;2.27;;;2.07;;
3278;SDS011;1651;50.940;6.888;2023-07-29T02:32:00;2.40;;;2.20;;
3278;SDS011;1651;50.940;6.888;2023-07-29T02:34:26;2.47;;;2.27;;
3278;SDS011;1651;50.940;6.888;2023-07-29T02:36:52;2.90;;;2.03;;
3278;SDS011;1651;50.940;6.888;2023-07-29T02:39:18;3.80;;;2.20;;
3278;SDS011;1651;50.940;6.888;2023-07-29T02:41:44;1.70;;;1.57;;
3278;SDS011;1651;50.940;6.888;2023-07-29T02:44:10;2.00;;;1.70;;
3278;SDS011;1651;50.940;6.888;2023-07-29T02:46:36;2.20;;;2.00;;
3278;SDS011;1651;50.940;6.888;2023-07-29T02:49:03;3.33;;;1.90;;
3278;SDS011;1651;50.940;6.888;2023-07-29T02:51:29;1.73;;;1.63;;
3278;SDS011;1651;50.940;6.888;2023-07-29T02:53:55;4.20;;;1.77;;
3278;SDS011;1651;50.940;6.888;2023-07-29T02:56:21;2.40;;;1.67;;
3278;SDS011;1651;50.940;6.888;2023-07-29T02:58:47;1.93;;;1.83;;
3278;SDS011;1651;50.940;6.888;2023-07-29T03:01:14;2.43;;;1.77;;
3278;SDS011;1651;50.940;6.888;2023-07-29T03:03:40;3.43;;;1.70;;
3278;SDS011;1651;50.940;6.888;2023-07-29T03:06:07;2.17;;;1.73;;
3278;SDS011;1651;50.940;6.888;2023-07-29T03:08:34;2.13;;;1.93;;
3278;SDS011;1651;50.940;6.888;2023-07-29T03:11:04;1.57;;;1.30;;
3278;SDS011;1651;50.940;6.888;2023-07-29T03:13:31;1.90;;;1.80;;
3278;SDS011;1651;50.940;6.888;2023-07-29T03:16:13;1.90;;;1.70;;
3278;SDS011;1651;50.940;6.888;2023-07-29T03:18:40;1.57;;;1.47;;
3278;SDS011;1651;50.940;6.888;2023-07-29T03:21:06;1.60;;;1.50;;
3278;SDS011;1651;50.940;6.888;2023-07-29T03:23:33;1.83;;;1.70;;
3278;SDS011;1651;50.940;6.888;2023-07-29T03:25:59;2.83;;;1.67;;
3278;SDS011;1651;50.940;6.888;2023-07-29T03:28:26;2.50;;;2.07;;
3278;SDS011;1651;50.940;6.888;2023-07-29T03:30:53;3.37;;;2.00;;
3278;SDS011;1651;50.940;6.888;2023-07-29T03:33:19;1.73;;;1.30;;
3278;SDS011;1651;50.940;6.888;2023-07-29T03:35:45;3.87;;;2.73;;
3278;SDS011;1651;50.940;6.888;2023-07-29T03:38:11;3.03;;;1.67;;
3278;SDS011;1651;50.940;6.888;2023-07-29T03:40:37;1.97;;;1.80;;
3278;SDS011;1651;50.940;6.888;2023-07-29T03:43:03;1.73;;;1.63;;
3278;SDS011;1651;50.940;6.888;2023-07-29T03:45:30;4.40;;;1.77;;
3278;SDS011;1651;50.940;6.888;2023-07-29T03:47:56;5.17;;;1.80;;
3278;SDS011;1651;50.940;6.888;2023-07-29T03:50:22;3.50;;;1.60;;
3278;SDS011;1651;50.940;6.888;2023-07-29T03:52:49;1.80;;;1.57;;
3278;SDS011;1651;50.940;6.888;2023-07-29T03:55:15;1.63;;;1.53;;
3278;SDS011;1651;50.940;6.888;2023-07-29T03:57:41;3.23;;;1.70;;
3278;SDS011;1651;50.940;6.888;2023-07-29T04:00:07;2.03;;;1.60;;
3278;SDS011;1651;50.940;6.888;2023-07-29T04:02:34;3.63;;;2.03;;
3278;SDS011;1651;50.940;6.888;2023-07-29T04:05:02;2.20;;;2.00;;
3278;SDS011;1651;50.940;6.888;2023-07-29T04:07:28;1.80;;;1.47;;
3278;SDS011;1651;50.940;6.888;2023-07-29T04:09:54;2.20;;;1.80;;
3278;SDS011;1651;50.940;6.888;2023-07-29T04:12:20;2.67;;;2.47;;
3278;SDS011;1651;50.940;6.888;2023-07-29T04:14:47;2.53;;;1.40;;
3278;SDS011;1651;50.940;6.888;2023-07-29T04:17:12;2.20;;;2.00;;
3278;SDS011;1651;50.940;6.888;2023-07-29T04:19:38;2.40;;;2.10;;
3278;SDS011;1651;50.940;6.888;2023-07-29T04:22:05;1.57;;;1.40;;
3278;SDS011;1651;50.940;6.888;2023-07-29T04:24:31;3.00;;;1.87;;
3278;SDS011;1651;50.940;6.888;2023-07-29T04:26:56;3.00;;;2.30;;
3278;SDS011;1651;50.940;6.888;2023-07-29T04:29:22;2.40;;;2.20;;
3278;SDS011;1651;50.940;6.888;2023-07-29T04:31:52;3.37;;;2.00;;
3278;SDS011;1651;50.940;6.888;2023-07-29T04:34:18;1.97;;;1.77;;
3278;SDS011;1651;50.940;6.888;2023-07-29T04:36:44;1.97;;;1.87;;
3278;SDS011;1651;50.940;6.888;2023-07-29T04:39:11;2.13;;;1.60;;
3278;SDS011;1651;50.940;6.888;2023-07-29T04:41:36;2.10;;;1.90;;
3278;SDS011;1651;50.940;6.888;2023-07-29T04:44:02;2.40;;;2.10;;
3278;SDS011;1651;50.940;6.888;2023-07-29T04:46:29;4.50;;;2.17;;
3278;SDS011;1651;50.940;6.888;2023-07-29T04:48:55;2.40;;;1.90;;
3278;SDS011;1651;50.940;6.888;2023-07-29T04:51:21;2.03;;;1.70;;
3278;SDS011;1651;50.940;6.888;2023-07-29T04:53:47;2.60;;;1.90;;
3278;SDS011;1651;50.940;6.888;2023-07-29T04:56:13;2.40;;;2.20;;
3278;SDS011;1651;50.940;6.888;2023-07-29T04:58:39;5.27;;;2.93;;
3278;SDS011;1651;50.940;6.888;2023-07-29T05:01:05;5.03;;;3.10;;
3278;SDS011;1651;50.940;6.888;2023-07-29T05:03:31;3.40;;;2.70;;
3278;SDS011;1651;50.940;6.888;2023-07-29T05:05:58;3.43;;;2.40;;
3278;SDS011;1651;50.940;6.888;2023-07-29T05:08:24;2.87;;;2.60;;
3278;SDS011;1651;50.940;6.888;2023-07-29T05:10:50;2.97;;;2.63;;
3278;SDS011;1651;50.940;6.888;2023-07-29T05:13:17;1.97;;;1.77;;
3278;SDS011;1651;50.940;6.888;2023-07-29T05:15:43;6.30;;;2.47;;
3278;SDS011;1651;50.940;6.888;2023-07-29T05:18:09;4.30;;;2.97;;
3278;SDS011;1651;50.940;6.888;2023-07-29T05:20:35;4.40;;;3.33;;
3278;SDS011;1651;50.940;6.888;2023-07-29T05:23:01;4.63;;;3.20;;
3278;SDS011;1651;50.940;6.888;2023-07-29T05:25:28;2.70;;;2.50;;
3278;SDS011;1651;50.940;6.888;2023-07-29T05:27:54;5.57;;;3.00;;
3278;SDS011;1651;50.940;6.888;2023-07-29T05:30:20;2.70;;;2.27;;
3278;SDS011;1651;50.940;6.888;2023-07-29T05:32:46;2.90;;;2.60;;
3278;SDS011;1651;50.940;6.888;2023-07-29T05:35:12;4.83;;;2.90;;
3278;SDS011;1651;50.940;6.888;2023-07-29T05:37:38;6.57;;;3.23;;
3278;SDS011;1651;50.940;6.888;2023-07-29T05:40:07;4.57;;;2.80;;
3278;SDS011;1651;50.940;6.888;2023-07-29T05:42:34;3.97;;;2.90;;
3278;SDS011;1651;50.940;6.888;2023-07-29T05:47:36;4.50;;;2.70;;
3278;SDS011;1651;50.940;6.888;2023-07-29T05:50:02;2.97;;;2.20;;
3278;SDS011;1651;50.940;6.888;2023-07-29T05:52:29;4.40;;;3.03;;
3278;SDS011;1651;50.940;6.888;2023-07-29T05:54:55;4.07;;;2.50;;
3278;SDS011;1651;50.940;6.888;2023-07-29T05:57:21;4.23;;;2.83;;
3278;SDS011;1651;50.940;6.888;2023-07-29T05:59:47;2.70;;;2.03;;
3278;SDS011;1651;50.940;6.888;2023-07-29T06:02:13;2.67;;;1.77;;
3278;SDS011;1651;50.940;6.888;2023-07-29T06:04:39;2.30;;;2.10;;
3278;SDS011;1651;50.940;6.888;2023-07-29T06:07:05;3.27;;;2.97;;
3278;SDS011;1651;50.940;6.888;2023-07-29T06:09:31;2.93;;;2.60;;
3278;SDS011;1651;50.940;6.888;2023-07-29T06:11:57;2.77;;;2.57;;
3278;SDS011;1651;50.940;6.888;2023-07-29T06:14:23;2.23;;;1.97;;
3278;SDS011;1651;50.940;6.888;2023-07-29T06:16:50;4.00;;;2.50;;
3278;SDS011;1651;50.940;6.888;2023-07-29T06:19:15;4.90;;;2.80;;
3278;SDS011;1651;50.940;6.888;2023-07-29T06:21:41;4.37;;;1.83;;
3278;SDS011;1651;50.940;6.888;2023-07-29T06:24:07;1.73;;;1.60;;
3278;SDS011;1651;50.940;6.888;2023-07-29T06:26:33;2.40;;;1.70;;
3278;SDS011;1651;50.940;6.888;2023-07-29T06:28:59;9.43;;;2.00;;
3278;SDS011;1651;50.940;6.888;2023-07-29T06:31:25;4.23;;;2.17;;
3278;SDS011;1651;50.940;6.888;2023-07-29T06:33:51;3.20;;;1.80;;
3278;SDS011;1651;50.940;6.888;2023-07-29T06:36:17;1.67;;;1.57;;
3278;SDS011;1651;50.940;6.888;2023-07-29T06:38:43;1.77;;;1.50;;
3278;SDS011;1651;50.940;6.888;2023-07-29T06:41:09;2.33;;;1.80;;
3278;SDS011;1651;50.940;6.888;2023-07-29T06:43:35;1.60;;;1.50;;
3278;SDS011;1651;50.940;6.888;2023-07-29T06:46:01;2.57;;;1.50;;
3278;SDS011;1651;50.940;6.888;2023-07-29T06:48:27;2.50;;;1.80;;
3278;SDS011;1651;50.940;6.888;2023-07-29T06:50:53;1.60;;;1.50;;
3278;SDS011;1651;50.940;6.888;2023-07-29T06:53:20;2.77;;;1.53;;
3278;SDS011;1651;50.940;6.888;2023-07-29T06:55:46;3.77;;;1.80;;
3278;SDS011;1651;50.940;6.888;2023-07-29T06:58:12;1.50;;;1.40;;
3278;SDS011;1651;50.940;6.888;2023-07-29T07:00:38;1.53;;;1.43;;
3278;SDS011;1651;50.940;6.888;2023-07-29T07:03:04;2.53;;;1.50;;
3278;SDS011;1651;50.940;6.888;2023-07-29T07:05:30;1.97;;;1.73;;
3278;SDS011;1651;50.940;6.888;2023-07-29T07:07:56;2.23;;;1.50;;
3278;SDS011;1651;50.940;6.888;2023-07-29T07:10:22;1.90;;;1.70;;
3278;SDS011;1651;50.940;6.888;2023-07-29T07:12:48;1.33;;;1.10;;
3278;SDS011;1651;50.940;6.888;2023-07-29T07:15:14;2.03;;;1.27;;
3278;SDS011;1651;50.940;6.888;2023-07-29T07:17:40;2.60;;;1.33;;
3278;SDS011;1651;50.940;6.888;2023-07-29T07:20:06;1.20;;;1.10;;
3278;SDS011;1651;50.940;6.888;2023-07-29T07:22:32;1.40;;;1.30;;
3278;SDS011;1651;50.940;6.888;2023-07-29T07:24:58;3.30;;;1.53;;
3278;SDS011;1651;50.940;6.888;2023-07-29T07:27:24;3.53;;;1.20;;
3278;SDS011;1651;50.940;6.888;2023-07-29T07:29:50;1.50;;;1.30;;
3278;SDS011;1651;50.940;6.888;2023-07-29T07:32:16;2.43;;;1.27;;
3278;SDS011;1651;50.940;6.888;2023-07-29T07:34:42;1.70;;;1.20;;
3278;SDS011;1651;50.940;6.888;2023-07-29T07:37:08;2.27;;;1.60;;
3278;SDS011;1651;50.940;6.888;2023-07-29T07:39:34;2.00;;;1.43;;
3278;SDS011;1651;50.940;6.888;2023-07-29T07:42:00;2.00;;;1.30;;
3278;SDS011;1651;50.940;6.888;2023-07-29T07:44:26;1.80;;;1.13;;
3278;SDS011;1651;50.940;6.888;2023-07-29T07:46:52;1.60;;;1.27;;
3278;SDS011;1651;50.940;6.888;2023-07-29T07:49:21;1.60;;;1.30;;
3278;SDS011;1651;50.940;6.888;2023-07-29T07:51:48;1.50;;;1.40;;
3278;SDS011;1651;50.940;6.888;2023-07-29T07:54:13;1.20;;;1.10;;
3278;SDS011;1651;50.940;6.888;2023-07-29T07:56:39;1.40;;;1.00;;
3278;SDS011;1651;50.940;6.888;2023-07-29T07:59:05;1.90;;;1.37;;
3278;SDS011;1651;50.940;6.888;2023-07-29T08:01:35;1.97;;;1.60;;
3278;SDS011;1651;50.940;6.888;2023-07-29T08:04:02;2.57;;;1.40;;
3278;SDS011;1651;50.940;6.888;2023-07-29T08:06:29;2.30;;;1.17;;
3278;SDS011;1651;50.940;6.888;2023-07-29T08:08:55;2.87;;;1.40;;
3278;SDS011;1651;50.940;6.888;2023-07-29T08:11:21;1.37;;;1.27;;
3278;SDS011;1651;50.940;6.888;2023-07-29T08:13:47;1.20;;;1.10;;
3278;SDS011;1651;50.940;6.888;2023-07-29T08:16:13;3.30;;;1.40;;
3278;SDS011;1651;50.940;6.888;2023-07-29T08:18:39;1.83;;;1.50;;
3278;SDS011;1651;50.940;6.888;2023-07-29T08:21:05;2.10;;;1.73;;
3278;SDS011;1651;50.940;6.888;2023-07-29T08:23:34;1.27;;;1.07;;
3278;SDS011;1651;50.940;6.888;2023-07-29T08:26:01;1.30;;;1.00;;
3278;SDS011;1651;50.940;6.888;2023-07-29T08:28:31;2.07;;;1.20;;
3278;SDS011;1651;50.940;6.888;2023-07-29T08:30:57;2.40;;;0.93;;
3278;SDS011;1651;50.940;6.888;2023-07-29T08:33:24;1.30;;;1.10;;
3278;SDS011;1651;50.940;6.888;2023-07-29T08:35:50;2.90;;;1.43;;
3278;SDS011;1651;50.940;6.888;2023-07-29T08:38:16;4.60;;;1.23;;
3278;SDS011;1651;50.940;6.888;2023-07-29T08:40:45;5.00;;;1.57;;
3278;SDS011;1651;50.940;6.888;2023-07-29T08:43:11;1.23;;;1.13;;
3278;SDS011;1651;50.940;6.888;2023-07-29T08:45:37;1.33;;;1.23;;
3278;SDS011;1651;50.940;6.888;2023-07-29T08:48:07;1.20;;;1.10;;
3278;SDS011;1651;50.940;6.888;2023-07-29T08:50:33;1.60;;;1.10;;
3278;SDS011;1651;50.940;6.888;2023-07-29T08:53:01;1.30;;;1.20;;
3278;SDS011;1651;50.940;6.888;2023-07-29T08:55:29;2.67;;;1.20;;
3278;SDS011;1651;50.940;6.888;2023-07-29T08:57:55;1.20;;;1.00;;
3278;SDS011;1651;50.940;6.888;2023-07-29T09:00:21;2.13;;;1.47;;
3278;SDS011;1651;50.940;6.888;2023-07-29T09:02:47;1.23;;;1.10;;
3278;SDS011;1651;50.940;6.888;2023-07-29T09:05:13;1.53;;;1.20;;
3278;SDS011;1651;50.940;6.888;2023-07-29T09:07:39;1.23;;;1.13;;
3278;SDS011;1651;50.940;6.888;2023-07-29T09:10:08;2.13;;;1.47;;
3278;SDS011;1651;50.940;6.888;2023-07-29T09:12:35;1.20;;;1.10;;
3278;SDS011;1651;50.940;6.888;2023-07-29T09:15:01;1.30;;;1.00;;
3278;SDS011;1651;50.940;6.888;2023-07-29T09:17:30;2.73;;;1.20;;
3278;SDS011;1651;50.940;6.888;2023-07-29T09:19:57;1.80;;;1.10;;
3278;SDS011;1651;50.940;6.888;2023-07-29T09:22:23;3.10;;;1.40;;
3278;SDS011;1651;50.940;6.888;2023-07-29T09:24:50;1.50;;;1.10;;
3278;SDS011;1651;50.940;6.888;2023-07-29T09:27:23;1.30;;;1.20;;
3278;SDS011;1651;50.940;6.888;2023-07-29T09:29:50;1.53;;;1.20;;
3278;SDS011;1651;50.940;6.888;2023-07-29T09:32:20;2.87;;;1.00;;
3278;SDS011;1651;50.940;6.888;2023-07-29T09:34:46;1.47;;;1.00;;
3278;SDS011;1651;50.940;6.888;2023-07-29T09:37:16;1.43;;;1.33;;
3278;SDS011;1651;50.940;6.888;2023-07-29T09:39:45;1.97;;;1.20;;
3278;SDS011;1651;50.940;6.888;2023-07-29T09:42:16;1.87;;;1.20;;
3278;SDS011;1651;50.940;6.888;2023-07-29T09:44:42;1.57;;;1.27;;
3278;SDS011;1651;50.940;6.888;2023-07-29T09:47:09;1.37;;;0.90;;
3278;SDS011;1651;50.940;6.888;2023-07-29T09:49:35;1.60;;;1.10;;
3278;SDS011;1651;50.940;6.888;2023-07-29T09:52:04;1.70;;;1.60;;
3278;SDS011;1651;50.940;6.888;2023-07-29T09:54:30;1.50;;;1.40;;
3278;SDS011;1651;50.940;6.888;2023-07-29T09:56:56;3.00;;;1.20;;
3278;SDS011;1651;50.940;6.888;2023-07-29T09:59:23;1.77;;;1.20;;
3278;SDS011;1651;50.940;6.888;2023-07-29T10:01:49;1.30;;;1.10;;
3278;SDS011;1651;50.940;6.888;2023-07-29T10:04:15;1.30;;;1.20;;
3278;SDS011;1651;50.940;6.888;2023-07-29T10:06:42;1.40;;;1.30;;
3278;SDS011;1651;50.940;6.888;2023-07-29T10:09:09;2.00;;;1.33;;
3278;SDS011;1651;50.940;6.888;2023-07-29T10:11:36;2.40;;;1.47;;
3278;SDS011;1651;50.940;6.888;2023-07-29T10:14:03;1.60;;;1.37;;
3278;SDS011;1651;50.940;6.888;2023-07-29T10:16:29;1.50;;;1.40;;
3278;SDS011;1651;50.940;6.888;2023-07-29T10:18:55;1.50;;;1.10;;
3278;SDS011;1651;50.940;6.888;2023-07-29T10:21:22;2.23;;;1.30;;
3278;SDS011;1651;50.940;6.888;2023-07-29T10:23:48;1.50;;;1.40;;
3278;SDS011;1651;50.940;6.888;2023-07-29T10:26:16;1.70;;;1.10;;
3278;SDS011;1651;50.940;6.888;2023-07-29T10:28:44;2.83;;;1.43;;
3278;SDS011;1651;50.940;6.888;2023-07-29T10:31:12;2.33;;;1.50;;
3278;SDS011;1651;50.940;6.888;2023-07-29T10:33:38;2.30;;;1.23;;
3278;SDS011;1651;50.940;6.888;2023-07-29T10:36:05;1.20;;;1.07;;
3278;SDS011;1651;50.940;6.888;2023-07-29T10:38:31;1.37;;;1.27;;
3278;SDS011;1651;50.940;6.888;2023-07-29T10:40:57;2.23;;;1.30;;
3278;SDS011;1651;50.940;6.888;2023-07-29T10:43:26;1.50;;;1.40;;
3278;SDS011;1651;50.940;6.888;2023-07-29T10:45:53;3.73;;;1.60;;
3278;SDS011;1651;50.940;6.888;2023-07-29T10:53:42;1.80;;;1.43;;
3278;SDS011;1651;50.940;6.888;2023-07-29T10:56:08;1.73;;;1.27;;
3278;SDS011;1651;50.940;6.888;2023-07-29T10:58:34;1.27;;;1.00;;
3278;SDS011;1651;50.940;6.888;2023-07-29T11:01:00;1.67;;;1.37;;
3278;SDS011;1651;50.940;6.888;2023-07-29T11:03:26;2.03;;;1.70;;
3278;SDS011;1651;50.940;6.888;2023-07-29T11:05:54;1.43;;;1.33;;
3278;SDS011;1651;50.940;6.888;2023-07-29T11:08:26;2.77;;;1.30;;
3278;SDS011;1651;50.940;6.888;2023-07-29T11:11:08;2.20;;;1.33;;
3278;SDS011;1651;50.940;6.888;2023-07-29T11:13:37;1.47;;;1.33;;
3278;SDS011;1651;50.940;6.888;2023-07-29T11:16:04;1.57;;;1.47;;
3278;SDS011;1651;50.940;6.888;2023-07-29T11:18:34;1.70;;;1.30;;
3278;SDS011;1651;50.940;6.888;2023-07-29T11:21:01;1.57;;;1.37;;
3278;SDS011;1651;50.940;6.888;2023-07-29T11:23:29;1.80;;;1.23;;
3278;SDS011;1651;50.940;6.888;2023-07-29T11:25:55;1.27;;;1.17;;
3278;SDS011;1651;50.940;6.888;2023-07-29T11:28:21;1.63;;;1.33;;
3278;SDS011;1651;50.940;6.888;2023-07-29T11:30:49;1.60;;;1.10;;
3278;SDS011;1651;50.940;6.888;2023-07-29T11:33:17;2.93;;;1.63;;
3278;SDS011;1651;50.940;6.888;2023-07-29T11:35:43;1.50;;;1.07;;
3278;SDS011;1651;50.940;6.888;2023-07-29T11:38:14;1.80;;;1.20;;
3278;SDS011;1651;50.940;6.888;2023-07-29T11:40:40;2.70;;;1.37;;
3278;SDS011;1651;50.940;6.888;2023-07-29T11:43:06;3.03;;;1.60;;
3278;SDS011;1651;50.940;6.888;2023-07-29T11:45:33;2.10;;;1.40;;
3278;SDS011;1651;50.940;6.888;2023-07-29T11:48:00;1.77;;;1.53;;
3278;SDS011;1651;50.940;6.888;2023-07-29T11:50:26;4.10;;;1.47;;
3278;SDS011;1651;50.940;6.888;2023-07-29T11:52:52;1.40;;;1.30;;
3278;SDS011;1651;50.940;6.888;2023-07-29T11:55:18;1.93;;;1.30;;
3278;SDS011;1651;50.940;6.888;2023-07-29T11:57:45;2.10;;;1.50;;
3278;SDS011;1651;50.940;6.888;2023-07-29T12:00:14;4.50;;;1.50;;
3278;SDS011;1651;50.940;6.888;2023-07-29T12:02:42;2.83;;;1.50;;
3278;SDS011;1651;50.940;6.888;2023-07-29T12:05:11;1.37;;;1.13;;
3278;SDS011;1651;50.940;6.888;2023-07-29T12:07:38;1.73;;;1.30;;
3278;SDS011;1651;50.940;6.888;2023-07-29T12:10:04;1.60;;;1.40;;
3278;SDS011;1651;50.940;6.888;2023-07-29T12:12:31;1.83;;;1.30;;
3278;SDS011;1651;50.940;6.888;2023-07-29T12:14:57;2.90;;;1.67;;
3278;SDS011;1651;50.940;6.888;2023-07-29T12:17:23;1.67;;;1.20;;
3278;SDS011;1651;50.940;6.888;2023-07-29T12:19:49;2.20;;;1.50;;
3278;SDS011;1651;50.940;6.888;2023-07-29T12:22:18;2.07;;;1.40;;
3278;SDS011;1651;50.940;6.888;2023-07-29T12:24:44;1.57;;;1.30;;
3278;SDS011;1651;50.940;6.888;2023-07-29T12:27:13;2.20;;;1.40;;
3278;SDS011;1651;50.940;6.888;2023-07-29T12:29:43;1.93;;;1.50;;
3278;SDS011;1651;50.940;6.888;2023-07-29T12:32:09;2.23;;;1.40;;
3278;SDS011;1651;50.940;6.888;2023-07-29T12:34:36;1.50;;;1.30;;
3278;SDS011;1651;50.940;6.888;2023-07-29T12:37:03;1.33;;;1.17;;
3278;SDS011;1651;50.940;6.888;2023-07-29T12:39:30;2.10;;;1.80;;
3278;SDS011;1651;50.940;6.888;2023-07-29T12:41:58;2.03;;;1.87;;
3278;SDS011;1651;50.940;6.888;2023-07-29T12:44:25;2.43;;;1.50;;
3278;SDS011;1651;50.940;6.888;2023-07-29T12:46:51;1.50;;;1.30;;
3278;SDS011;1651;50.940;6.888;2023-07-29T12:49:17;2.40;;;1.57;;
3278;SDS011;1651;50.940;6.888;2023-07-29T12:51:43;2.10;;;1.40;;
3278;SDS011;1651;50.940;6.888;2023-07-29T12:54:09;2.53;;;1.50;;
3278;SDS011;1651;50.940;6.888;2023-07-29T12:56:35;2.03;;;1.47;;
3278;SDS011;1651;50.940;6.888;2023-07-29T12:59:01;2.37;;;1.30;;
3278;SDS011;1651;50.940;6.888;2023-07-29T13:01:28;2.63;;;2.00;;
3278;SDS011;1651;50.940;6.888;2023-07-29T13:03:54;1.40;;;1.30;;
3278;SDS011;1651;50.940;6.888;2023-07-29T13:06:21;1.83;;;1.20;;
3278;SDS011;1651;50.940;6.888;2023-07-29T13:08:48;1.53;;;1.40;;
3278;SDS011;1651;50.940;6.888;2023-07-29T13:11:15;1.60;;;1.40;;
3278;SDS011;1651;50.940;6.888;2023-07-29T13:13:41;2.20;;;1.30;;
3278;SDS011;1651;50.940;6.888;2023-07-29T13:16:07;2.23;;;1.60;;
3278;SDS011;1651;50.940;6.888;2023-07-29T13:18:33;1.67;;;1.23;;
3278;SDS011;1651;50.940;6.888;2023-07-29T13:20:59;1.70;;;1.37;;
3278;SDS011;1651;50.940;6.888;2023-07-29T13:23:25;2.50;;;1.43;;
3278;SDS011;1651;50.940;6.888;2023-07-29T13:25:52;1.87;;;1.27;;
3278;SDS011;1651;50.940;6.888;2023-07-29T13:28:18;1.30;;;1.20;;
3278;SDS011;1651;50.940;6.888;2023-07-29T13:30:44;2.83;;;1.83;;
3278;SDS011;1651;50.940;6.888;2023-07-29T13:33:10;1.50;;;1.40;;
3278;SDS011;1651;50.940;6.888;2023-07-29T13:35:36;2.60;;;1.93;;
3278;SDS011;1651;50.940;6.888;2023-07-29T13:38:02;2.30;;;2.03;;
3278;SDS011;1651;50.940;6.888;2023-07-29T13:40:29;2.20;;;1.80;;
3278;SDS011;1651;50.940;6.888;2023-07-29T13:42:55;2.13;;;1.77;;
3278;SDS011;1651;50.940;6.888;2023-07-29T13:45:21;1.63;;;1.50;;
3278;SDS011;1651;50.940;6.888;2023-07-29T13:47:48;5.70;;;2.00;;
3278;SDS011;1651;50.940;6.888;2023-07-29T13:50:15;3.10;;;2.13;;
3278;SDS011;1651;50.940;6.888;2023-07-29T13:52:41;2.37;;;1.90;;
3278;SDS011;1651;50.940;6.888;2023-07-29T13:55:07;4.87;;;2.40;;
3278;SDS011;1651;50.940;6.888;2023-07-29T13:57:33;4.80;;;2.23;;
3278;SDS011;1651;50.940;6.888;2023-07-29T13:59:59;2.20;;;2.00;;
3278;SDS011;1651;50.940;6.888;2023-07-29T14:02:25;4.33;;;2.40;;
3278;SDS011;1651;50.940;6.888;2023-07-29T14:04:51;2.60;;;1.90;;
3278;SDS011;1651;50.940;6.888;2023-07-29T14:07:17;2.30;;;1.83;;
3278;SDS011;1651;50.940;6.888;2023-07-29T14:09:43;3.77;;;2.10;;
3278;SDS011;1651;50.940;6.888;2023-07-29T14:12:09;2.70;;;2.30;;
3278;SDS011;1651;50.940;6.888;2023-07-29T14:14:39;3.77;;;2.50;;
3278;SDS011;1651;50.940;6.888;2023-07-29T14:17:06;3.17;;;2.27;;
3278;SDS011;1651;50.940;6.888;2023-07-29T14:19:33;4.20;;;2.60;;
3278;SDS011;1651;50.940;6.888;2023-07-29T14:21:59;3.23;;;2.10;;
3278;SDS011;1651;50.940;6.888;2023-07-29T14:24:25;3.10;;;2.37;;
3278;SDS011;1651;50.940;6.888;2023-07-29T14:26:51;3.83;;;2.67;;
3278;SDS011;1651;50.940;6.888;2023-07-29T14:29:17;2.90;;;2.33;;
3278;SDS011;1651;50.940;6.888;2023-07-29T14:31:43;3.23;;;1.90;;
3278;SDS011;1651;50.940;6.888;2023-07-29T14:34:09;2.20;;;1.73;;
3278;SDS011;1651;50.940;6.888;2023-07-29T14:36:35;1.80;;;1.70;;
3278;SDS011;1651;50.940;6.888;2023-07-29T14:39:01;2.03;;;1.83;;
3278;SDS011;1651;50.940;6.888;2023-07-29T14:41:27;1.90;;;1.63;;
3278;SDS011;1651;50.940;6.888;2023-07-29T14:43:53;1.77;;;1.50;;
3278;SDS011;1651;50.940;6.888;2023-07-29T14:46:19;2.00;;;1.50;;
3278;SDS011;1651;50.940;6.888;2023-07-29T14:48:45;2.73;;;2.10;;
3278;SDS011;1651;50.940;6.888;2023-07-29T14:51:12;2.20;;;1.87;;
3278;SDS011;1651;50.940;6.888;2023-07-29T14:53:38;2.70;;;1.60;;
3278;SDS011;1651;50.940;6.888;2023-07-29T14:56:04;2.03;;;1.50;;
3278;SDS011;1651;50.940;6.888;2023-07-29T14:58:30;2.10;;;1.50;;
3278;SDS011;1651;50.940;6.888;2023-07-29T15:00:56;2.20;;;1.57;;
3278;SDS011;1651;50.940;6.888;2023-07-29T15:03:22;2.13;;;1.93;;
3278;SDS011;1651;50.940;6.888;2023-07-29T15:05:48;1.70;;;1.60;;
3278;SDS011;1651;50.940;6.888;2023-07-29T15:08:14;1.90;;;1.43;;
3278;SDS011;1651;50.940;6.888;2023-07-29T15:10:40;1.80;;;1.60;;
3278;SDS011;1651;50.940;6.888;2023-07-29T15:13:06;1.60;;;1.50;;
3278;SDS011;1651;50.940;6.888;2023-07-29T15:15:32;2.50;;;1.63;;
3278;SDS011;1651;50.940;6.888;2023-07-29T15:17:58;2.30;;;1.40;;
3278;SDS011;1651;50.940;6.888;2023-07-29T15:20:24;3.80;;;1.70;;
3278;SDS011;1651;50.940;6.888;2023-07-29T15:22:50;4.63;;;1.67;;